Terminal Aerodrome Forecast
Issued by NWS Wilmington, NC

Current Version | Previous Version | Graphics & Text | Print | Product List | Glossary Off
Versions: 1 2 3 4 5 6 7 8 9 10 11 12 13 14 15 16 17

000
FTUS42 KILM 030550 CCA
TAFMYR
TAF COR
KMYR 030550Z 0306/0406 20012G16KT 4SM -SHRA BR BKN015 OVC035
      TEMPO 0306/0310 SCT015 BKN045
     FM031300 20012G18KT P6SM VCTS BKN015CB BKN025
      TEMPO 0319/0323 VRB20G30KT 3SM TSRA BKN020CB
     FM040000 19011KT P6SM BKN100
     FM040400 19009KT P6SM BKN200
      AMD LTD TO CLD VIS AND WIND TIL 031100=

USA.gov is the U.S. government's official web portal to all federal, state and local government web resources and services.